MAPA DE AEROPUERTO

INFORMACIÓN METAR y TAF

METAR FOR LEMH
ADDS - METARS form results

(1115 UTC 29 January 2022)
Data provider http://aviationweather.gov/metar/data/
 
METAR text: LEMH 291100Z 01011KT 9999 SCT025 13/06 Q1032
Conditions at: LEMH (MAHON/MENORCA IS, ES) observed 1100 UTC 29 January 2022
Temperature: 13.0°C (55°F)
Dewpoint: 6.0°C (43°F) [RH = 62%]
Pressure (altimeter): 30.47 inches Hg (1032.0 mb)
Winds: from the N (10 degrees) at 13 MPH (11 knots; 5.7 m/s)
Visibility: 6 or more miles (10+ km)
Ceiling: at least 12,000 feet AGL
Clouds: scattered clouds at 2500 feet AGL
Weather: no significant weather observed at this time

METAR text: LEMH 291030Z 01012KT 330V030 9999 FEW024 13/06 Q1032
Conditions at: LEMH (MAHON/MENORCA IS, ES) observed 1030 UTC 29 January 2022
Temperature: 13.0°C (55°F)
Dewpoint: 6.0°C (43°F) [RH = 62%]
Pressure (altimeter): 30.47 inches Hg (1032.0 mb)
Winds: from the N (10 degrees) at 14 MPH (12 knots; 6.2 m/s)
Visibility: 6 or more miles (10+ km)
Ceiling: at least 12,000 feet AGL
Clouds: few clouds at 2400 feet AGL
Weather: no significant weather observed at this time

Forecast for: LEMH (MAHON/MENORCA IS, ES)
Text: TAF LEMH 290800Z 2909/3009 01014KT 9999 SCT020 TX14/2912Z TN07/3006Z
Forecast period: 0900 to 1700 UTC 29 January 2022
Forecast type: FROM: standard forecast or significant change
Winds: from the N (10 degrees) at 16 MPH (14 knots; 7.2 m/s)
Visibility: 6 or more miles (10+ km)
Ceiling: at least 12,000 feet AGL
Clouds: scattered clouds at 2000 feet AGL
Weather: no significant weather forecast for this period
Text: BECMG 2917/2919 VRB03KT
Forecast period: 1700 UTC 29 January 2022 to 0900 UTC 30 January 2022
Forecast type: BECOMING: Conditions expected to become as follows by 1900 UTC 29 January 2022
Winds: variable direction winds at 3 MPH (3 knots; 1.5 m/s)
Visibility: 6 or more miles (10+ km)
Ceiling: at least 12,000 feet AGL
Clouds: scattered clouds at 2000 feet AGL
Weather: no significant weather forecast for this period